Time;durP1;ratioP1;P1;durP2;ratioP2;P2;SDS_P1;SDS_P2;PMS_P1;PMS_P2;Temp;Humidity;BMP_temperature;BMP_pressure;BME280_temperature;BME280_humidity;BME280_pressure;Samples;Min_cycle;Max_cycle;Signal;HPM_P1;HPM_P2
2023/07/31 00:05:30;;;;;;;5.40;4.90;;;;;;;16.30;87.50;98418.67;226741;1276;22628;-79
2023/07/31 00:11:48;;;;;;;6.80;4.70;;;;;;;16.22;87.66;98424.36;226676;1276;25297;-79
2023/07/31 00:24:25;;;;;;;;;;;;;;;;;;;;;
2023/07/31 00:30:46;;;;;;;5.10;4.60;;;;;;;16.03;87.74;98420.61;226665;1275;22533;-79
2023/07/31 00:36:49;;;;;;;5.40;4.50;;;;;;;15.97;87.69;98426.84;226623;1267;22537;-79
2023/07/31 00:43:37;;;;;;;5.00;4.50;;;;;;;15.91;87.78;98435.73;226629;1276;22579;-78
2023/07/31 00:49:22;;;;;;;;;;;;;;;;;;;;;
2023/07/31 00:55:24;;;;;;;4.40;4.00;;;;;;;15.78;87.83;98443.20;226622;1276;22575;-79
2023/07/31 01:01:22;;;;;;;6.60;4.30;;;;;;;15.71;88.09;98444.39;226733;1276;22521;-80
2023/07/31 01:06:54;;;;;;;6.00;4.30;;;;;;;15.64;88.02;98447.20;226799;1276;22543;-79
2023/07/31 01:12:21;;;;;;;5.50;4.50;;;;;;;15.58;88.40;98458.49;226278;1273;22541;-78
2023/07/31 01:17:48;;;;;;;;;;;;;;;;;;;;;
2023/07/31 01:23:37;;;;;;;4.40;4.00;;;;;;;15.61;88.66;98463.19;226015;1279;22523;-79
2023/07/31 01:29:18;;;;;;;;;;;;;;;;;;;;;
2023/07/31 01:34:37;;;;;;;4.40;3.80;;;;;;;15.73;88.34;98468.19;226138;1275;22554;-79
2023/07/31 01:39:48;;;;;;;3.90;3.50;;;;;;;15.75;88.14;98468.13;226732;1272;22560;-79
2023/07/31 01:45:40;;;;;;;3.70;3.40;;;;;;;15.73;88.01;98472.67;226656;1276;25335;-78
2023/07/31 01:51:47;;;;;;;;;;;;;;;;;;;;;
2023/07/31 01:57:11;;;;;;;3.90;3.60;;;;;;;15.73;87.92;98470.06;226755;1270;22545;-78
2023/07/31 02:03:39;;;;;;;3.90;3.70;;;;;;;15.76;87.76;98470.98;226723;1276;24319;-79
2023/07/31 02:09:00;;;;;;;3.70;3.10;;;;;;;15.80;87.78;98470.06;226783;1272;22517;-79
2023/07/31 02:14:47;;;;;;;4.10;3.10;;;;;;;15.83;87.55;98461.52;226753;1276;24222;-79
2023/07/31 02:20:51;;;;;;;3.10;2.70;;;;;;;15.83;87.25;98472.93;226662;1276;22534;-79
2023/07/31 02:33:09;;;;;;;3.50;3.20;;;;;;;15.77;87.28;98488.91;226761;1256;22540;-78
2023/07/31 02:38:27;;;;;;;4.60;2.90;;;;;;;15.71;87.17;98501.35;226546;1275;22534;-79
2023/07/31 02:44:30;;;;;;;4.70;2.80;;;;;;;15.67;87.18;98503.63;226663;1253;22556;-79
2023/07/31 02:49:57;;;;;;;3.30;2.50;;;;;;;15.65;86.99;98506.92;226694;1276;22572;-79
2023/07/31 02:55:11;;;;;;;6.60;2.90;;;;;;;15.64;86.74;98502.96;226636;1276;24236;-80
2023/07/31 03:00:20;;;;;;;3.10;2.60;;;;;;;15.64;86.50;98506.85;226596;1273;22518;-79
2023/07/31 03:05:26;;;;;;;4.20;2.70;;;;;;;15.64;86.36;98504.81;226611;1273;22622;-78
2023/07/31 03:10:36;;;;;;;5.30;3.10;;;;;;;15.61;86.40;98506.36;226685;1276;24267;-79
2023/07/31 03:15:43;;;;;;;5.50;3.20;;;;;;;15.60;86.34;98509.61;226673;1253;22554;-80
2023/07/31 03:20:46;;;;;;;4.30;3.10;;;;;;;15.60;86.41;98516.33;226717;1276;22550;-79
2023/07/31 03:26:03;;;;;;;3.90;2.80;;;;;;;15.61;86.58;98519.96;226644;1276;22543;-79
2023/07/31 03:31:08;;;;;;;3.40;3.00;;;;;;;15.61;86.07;98522.79;226589;1274;24224;-78
2023/07/31 03:36:10;;;;;;;3.70;3.00;;;;;;;15.61;86.14;98521.77;226766;1272;22528;-79
2023/07/31 03:41:13;;;;;;;4.30;2.70;;;;;;;15.61;86.22;98530.90;226613;1276;22538;-79
2023/07/31 03:46:15;;;;;;;3.30;3.00;;;;;;;15.63;86.48;98537.77;226604;1273;22530;-78
2023/07/31 03:51:18;;;;;;;3.40;3.20;;;;;;;15.67;86.52;98535.26;226738;1272;22543;-79
2023/07/31 03:56:20;;;;;;;9.30;3.50;;;;;;;15.72;86.46;98526.17;226583;1275;22541;-78
2023/07/31 04:01:23;;;;;;;3.80;3.40;;;;;;;15.78;86.30;98528.08;226646;1276;22549;-78
2023/07/31 04:06:25;;;;;;;4.20;3.40;;;;;;;15.82;86.37;98533.31;226635;1273;22552;-79
2023/07/31 04:11:27;;;;;;;5.80;3.90;;;;;;;15.85;86.42;98534.05;226559;1276;22560;-78
2023/07/31 04:16:30;;;;;;;5.20;3.70;;;;;;;15.91;86.13;98531.83;226645;1263;22584;-78
2023/07/31 04:21:32;;;;;;;4.50;3.50;;;;;;;16.00;86.15;98527.59;226590;1275;23464;-80
2023/07/31 04:26:37;;;;;;;4.30;3.80;;;;;;;16.11;86.16;98533.29;226573;1275;23257;-79
2023/07/31 04:31:40;;;;;;;4.40;3.80;;;;;;;16.27;85.95;98540.02;226697;1273;22542;-78
2023/07/31 04:36:46;;;;;;;3.60;3.30;;;;;;;16.42;85.79;98541.45;226729;1272;22545;-77
2023/07/31 04:41:48;;;;;;;5.30;3.20;;;;;;;16.50;85.11;98545.16;226619;1273;22520;-79
2023/07/31 04:46:53;;;;;;;5.00;3.40;;;;;;;16.57;85.22;98548.27;226663;1275;25288;-78
2023/07/31 04:51:55;;;;;;;5.20;3.30;;;;;;;16.65;84.87;98548.80;226640;1274;22560;-78
2023/07/31 04:57:00;;;;;;;5.00;3.60;;;;;;;16.74;84.62;98547.42;226728;1276;22579;-81
2023/07/31 05:02:03;;;;;;;6.50;3.60;;;;;;;16.91;84.91;98546.52;226616;1271;22540;-77
2023/07/31 05:07:08;;;;;;;4.30;3.00;;;;;;;17.07;84.13;98543.45;226659;1273;22540;-78
2023/07/31 05:12:11;;;;;;;3.70;3.00;;;;;;;17.31;84.04;98540.29;226461;1275;25911;-78
2023/07/31 05:17:13;;;;;;;4.20;2.60;;;;;;;17.55;83.68;98541.35;226701;1272;22540;-78
2023/07/31 05:22:15;;;;;;;3.60;2.30;;;;;;;17.68;82.82;98545.90;226433;1276;22497;-78
2023/07/31 05:27:18;;;;;;;3.80;2.40;;;;;;;17.85;83.18;98543.80;226621;1273;22524;-78
2023/07/31 05:32:21;;;;;;;4.10;2.50;;;;;;;18.09;82.89;98541.31;226681;1269;22529;-79
2023/07/31 05:37:24;;;;;;;3.10;2.80;;;;;;;18.33;82.77;98541.07;226578;1276;24457;-79
2023/07/31 05:42:27;;;;;;;2.50;2.00;;;;;;;18.52;82.28;98548.16;226506;1255;22544;-78
2023/07/31 05:47:30;;;;;;;3.30;2.10;;;;;;;18.63;81.47;98549.86;226524;1275;22524;-77
2023/07/31 05:52:43;;;;;;;3.20;2.00;;;;;;;18.75;80.92;98550.83;226688;1269;22529;-76
2023/07/31 05:57:46;;;;;;;4.70;2.90;;;;;;;18.93;80.97;98550.86;226451;1272;25899;-75
2023/07/31 06:02:49;;;;;;;5.00;2.80;;;;;;;19.17;80.74;98551.29;226229;1267;24221;-77
2023/07/31 06:07:51;;;;;;;3.30;2.60;;;;;;;19.40;80.08;98557.98;226189;1262;22533;-77
2023/07/31 06:12:59;;;;;;;2.50;1.90;;;;;;;19.59;79.21;98554.01;225817;1253;22527;-75
2023/07/31 06:18:03;;;;;;;3.10;2.10;;;;;;;19.71;78.42;98550.42;226141;1256;22542;-77
2023/07/31 06:23:05;;;;;;;4.50;2.30;;;;;;;19.82;77.92;98550.21;225974;1256;22570;-76
2023/07/31 06:28:07;;;;;;;4.10;1.70;;;;;;;19.92;77.58;98549.72;225744;1260;24245;-75
2023/07/31 06:33:09;;;;;;;2.50;1.90;;;;;;;19.95;76.46;98548.52;225852;1253;22555;-75
2023/07/31 06:38:11;;;;;;;4.90;2.30;;;;;;;19.99;76.76;98546.70;225042;1258;22643;-74
2023/07/31 06:43:14;;;;;;;4.10;2.00;;;;;;;20.04;75.89;98545.58;225372;1264;22603;-75
2023/07/31 06:48:16;;;;;;;3.90;2.20;;;;;;;20.09;75.63;98541.02;225363;1260;23318;-77
2023/07/31 06:53:18;;;;;;;3.20;2.00;;;;;;;20.16;75.67;98545.16;225480;1256;22555;-75
2023/07/31 06:58:24;;;;;;;4.10;1.70;;;;;;;20.25;75.12;98545.45;225313;1268;24999;-77
2023/07/31 07:03:30;;;;;;;4.60;1.80;;;;;;;20.28;74.51;98553.48;225423;1259;22686;-75
2023/07/31 07:08:32;;;;;;;4.00;1.50;;;;;;;20.33;73.80;98557.55;225316;1272;22530;-76
2023/07/31 07:13:34;;;;;;;3.20;1.80;;;;;;;20.40;73.43;98559.61;225226;1256;22549;-76
2023/07/31 07:18:40;;;;;;;3.60;1.70;;;;;;;20.52;73.17;98558.52;225121;1266;25399;-75
2023/07/31 07:24:02;;;;;;;3.10;1.40;;;;;;;20.51;71.91;98554.95;225220;1272;25404;-75
2023/07/31 07:29:07;;;;;;;2.30;1.40;;;;;;;20.56;71.88;98553.73;225354;1261;22674;-78
2023/07/31 07:34:10;;;;;;;2.80;1.40;;;;;;;20.61;71.63;98552.89;225460;1272;22925;-77
2023/07/31 07:39:16;;;;;;;4.00;1.60;;;;;;;20.69;71.67;98551.60;225616;1272;22523;-76
2023/07/31 07:44:18;;;;;;;2.00;1.60;;;;;;;20.68;70.97;98545.68;225391;1261;22536;-77
2023/07/31 07:49:22;;;;;;;4.20;1.70;;;;;;;20.72;71.26;98546.52;225551;1265;22929;-77
2023/07/31 07:54:32;;;;;;;4.30;1.80;;;;;;;20.75;71.00;98549.61;225467;1256;22747;-75
2023/07/31 07:59:34;;;;;;;2.40;1.40;;;;;;;20.76;70.72;98550.30;225272;1262;22547;-75
2023/07/31 08:04:36;;;;;;;3.00;1.50;;;;;;;20.88;70.36;98553.98;225324;1268;23151;-78
2023/07/31 08:09:39;;;;;;;4.40;1.50;;;;;;;20.99;69.94;98552.48;225693;1279;24831;-77
2023/07/31 08:15:14;;;;;;;2.50;1.80;;;;;;;21.15;69.56;98547.40;225671;1256;22540;-77
2023/07/31 08:20:18;;;;;;;4.10;1.80;;;;;;;21.34;68.95;98547.89;225574;1268;22593;-76
2023/07/31 08:25:21;;;;;;;2.90;1.90;;;;;;;21.40;68.29;98545.89;225655;1272;22539;-77
2023/07/31 08:30:26;;;;;;;4.60;2.00;;;;;;;21.51;68.03;98553.20;225427;1275;25544;-77
2023/07/31 08:35:31;;;;;;;2.80;1.50;;;;;;;21.72;68.11;98550.79;225285;1277;22547;-78
2023/07/31 08:40:38;;;;;;;3.40;1.60;;;;;;;21.90;67.15;98553.62;225547;1272;22586;-77
2023/07/31 08:45:42;;;;;;;2.50;1.80;;;;;;;22.16;67.39;98551.03;225442;1260;22545;-75
2023/07/31 08:50:45;;;;;;;3.00;1.70;;;;;;;22.45;66.11;98549.58;225142;1265;22555;-76
2023/07/31 08:55:49;;;;;;;2.20;1.80;;;;;;;22.78;65.70;98549.55;225288;1256;22572;-78
2023/07/31 09:00:52;;;;;;;2.80;1.80;;;;;;;22.98;63.62;98546.56;225493;1277;22564;-77
2023/07/31 09:05:57;;;;;;;3.90;1.90;;;;;;;23.06;63.32;98536.06;225322;1262;22891;-77
2023/07/31 09:11:04;;;;;;;2.50;1.50;;;;;;;23.29;62.63;98536.89;225464;1276;22541;-77
2023/07/31 09:16:09;;;;;;;2.30;1.50;;;;;;;23.41;60.80;98534.25;225435;1262;27378;-78
2023/07/31 09:21:12;;;;;;;3.10;2.00;;;;;;;23.48;60.96;98529.10;225254;1276;22561;-75
2023/07/31 09:26:35;;;;;;;2.30;1.90;;;;;;;23.67;60.59;98528.95;225125;1261;22541;-78
2023/07/31 09:31:42;;;;;;;5.20;2.00;;;;;;;23.84;59.97;98520.75;225424;1273;22605;-76
2023/07/31 09:36:46;;;;;;;2.80;1.70;;;;;;;23.76;58.82;98519.08;225619;1278;22533;-77
2023/07/31 09:41:56;;;;;;;3.20;1.80;;;;;;;23.68;58.83;98517.41;225565;1268;22550;-78
2023/07/31 09:46:58;;;;;;;3.10;1.70;;;;;;;23.89;58.62;98518.02;225441;1272;23436;-77
2023/07/31 09:52:01;;;;;;;1.70;1.60;;;;;;;24.10;58.66;98522.55;225572;1256;22550;-80
2023/07/31 09:57:19;;;;;;;2.70;1.50;;;;;;;24.30;57.60;98520.91;225694;1269;22578;-77
2023/07/31 10:02:22;;;;;;;10.40;2.50;;;;;;;24.50;57.27;98517.11;225740;1272;22559;-79
2023/07/31 10:07:29;;;;;;;3.40;2.10;;;;;;;24.62;55.74;98511.63;225420;1264;22583;-77
2023/07/31 10:12:33;;;;;;;2.40;1.80;;;;;;;24.82;56.79;98502.61;225300;1265;22568;-77
2023/07/31 10:17:36;;;;;;;3.00;1.70;;;;;;;25.27;55.67;98492.74;225367;1272;24285;-76
2023/07/31 10:22:38;;;;;;;2.10;1.60;;;;;;;25.31;54.39;98485.17;225601;1260;22545;-78
2023/07/31 10:27:41;;;;;;;2.10;1.90;;;;;;;25.33;54.30;98482.07;225214;1279;22596;-76
2023/07/31 10:32:45;;;;;;;3.10;1.70;;;;;;;25.20;54.25;98487.63;225122;1278;22551;-77
2023/07/31 10:37:48;;;;;;;4.60;2.00;;;;;;;25.06;53.91;98481.77;225156;1269;22557;-78
2023/07/31 10:42:57;;;;;;;3.40;2.90;;;;;;;24.96;54.13;98472.04;225377;1262;22657;-76
2023/07/31 10:48:01;;;;;;;3.40;1.90;;;;;;;25.06;54.10;98467.55;223282;1265;3123733;-77
2023/07/31 10:53:04;;;;;;;2.20;2.00;;;;;;;25.20;54.28;98465.58;225766;1264;24363;-78
2023/07/31 10:58:09;;;;;;;2.90;1.90;;;;;;;25.27;53.73;98459.95;225287;1262;22541;-77
2023/07/31 11:03:22;;;;;;;2.70;2.10;;;;;;;25.32;53.99;98456.00;225316;1272;22520;-77
2023/07/31 11:08:31;;;;;;;3.50;1.60;;;;;;;25.33;54.10;98454.36;225411;1267;22627;-77
2023/07/31 11:13:49;;;;;;;3.40;2.00;;;;;;;25.52;53.41;98447.42;225391;1263;22536;-77
2023/07/31 11:18:53;;;;;;;4.80;2.00;;;;;;;25.62;53.26;98431.38;225626;1272;22551;-76
2023/07/31 11:23:57;;;;;;;2.50;2.30;;;;;;;25.66;52.85;98429.39;225351;1264;25439;-80
2023/07/31 11:29:02;;;;;;;2.10;1.80;;;;;;;25.53;52.70;98423.50;225306;1265;22607;-80
2023/07/31 11:34:05;;;;;;;2.10;1.90;;;;;;;25.30;52.00;98426.02;225341;1272;22636;-77
2023/07/31 11:39:09;;;;;;;2.70;1.90;;;;;;;25.09;52.55;98424.88;225521;1261;22528;-76
2023/07/31 11:44:12;;;;;;;2.30;1.90;;;;;;;25.02;51.85;98428.92;225626;1275;22576;-78
2023/07/31 11:49:31;;;;;;;5.60;2.00;;;;;;;24.82;52.33;98425.31;225313;1269;22690;-81
2023/07/31 11:54:36;;;;;;;6.40;2.00;;;;;;;24.93;53.80;98419.26;225396;1275;22571;-74
2023/07/31 11:59:39;;;;;;;3.40;1.80;;;;;;;25.09;53.39;98422.35;225522;1266;24216;-76
2023/07/31 12:04:42;;;;;;;7.20;1.90;;;;;;;25.07;53.11;98418.61;225692;1272;22643;-81
2023/07/31 12:09:54;;;;;;;5.80;2.00;;;;;;;25.15;52.43;98414.43;225472;1273;24237;-77
2023/07/31 12:14:58;;;;;;;3.80;1.50;;;;;;;25.35;52.88;98405.86;225691;1277;24246;-76
2023/07/31 12:20:04;;;;;;;2.50;1.80;;;;;;;25.63;52.35;98395.60;225958;1272;22615;-76
2023/07/31 12:25:07;;;;;;;2.60;1.70;;;;;;;25.96;51.68;98388.77;225629;1260;22532;-77
2023/07/31 12:30:27;;;;;;;2.20;1.70;;;;;;;26.09;50.75;98382.44;225407;1276;25271;-77
2023/07/31 12:35:38;;;;;;;2.50;1.80;;;;;;;26.15;50.04;98378.46;225633;1262;22543;-78
2023/07/31 12:40:42;;;;;;;3.20;1.60;;;;;;;26.07;49.91;98371.48;225586;1266;22542;-80
2023/07/31 12:45:44;;;;;;;3.40;1.90;;;;;;;26.18;50.24;98363.14;225561;1265;22599;-76
2023/07/31 12:50:49;;;;;;;3.20;1.50;;;;;;;26.40;50.82;98352.98;225726;1278;22570;-79
2023/07/31 12:55:52;;;;;;;4.20;1.80;;;;;;;26.60;50.24;98350.51;225598;1266;22566;-76
2023/07/31 13:00:54;;;;;;;3.80;1.70;;;;;;;26.61;49.84;98348.53;225151;1279;26562;-77
2023/07/31 13:05:56;;;;;;;2.00;1.70;;;;;;;26.61;50.00;98342.56;225123;1273;22548;-79
2023/07/31 13:10:58;;;;;;;1.90;1.70;;;;;;;26.56;49.37;98338.79;225301;1280;22554;-76
2023/07/31 13:16:00;;;;;;;5.50;4.60;;;;;;;26.50;49.31;98333.88;225484;1276;23147;-78
2023/07/31 13:21:02;;;;;;;2.80;1.50;;;;;;;26.57;49.76;98329.45;225566;1274;22735;-77
2023/07/31 13:26:04;;;;;;;3.20;1.70;;;;;;;26.78;49.17;98323.51;225756;1268;23268;-76
2023/07/31 13:31:07;;;;;;;1.80;1.70;;;;;;;26.93;49.18;98320.48;226013;1276;22561;-76
2023/07/31 13:36:09;;;;;;;3.20;1.70;;;;;;;26.91;49.03;98316.77;225531;1273;22570;-75
2023/07/31 13:41:12;;;;;;;2.00;1.50;;;;;;;26.83;49.04;98318.89;225443;1269;22572;-79
2023/07/31 13:46:14;;;;;;;2.80;1.70;;;;;;;26.54;48.81;98320.82;225540;1276;22547;-76
2023/07/31 13:51:21;;;;;;;2.40;1.70;;;;;;;26.26;49.42;98318.84;225401;1273;22579;-77
2023/07/31 13:56:23;;;;;;;4.20;2.10;;;;;;;25.91;49.68;98321.45;225486;1278;23167;-78
2023/07/31 14:01:25;;;;;;;2.10;1.90;;;;;;;25.59;49.88;98319.83;225087;1276;22541;-78
2023/07/31 14:06:27;;;;;;;1.80;1.50;;;;;;;25.40;50.16;98319.87;225242;1280;22540;-78
2023/07/31 14:11:33;;;;;;;2.30;1.20;;;;;;;25.25;50.38;98318.60;225108;1279;22550;-77
2023/07/31 14:16:35;;;;;;;1.60;1.40;;;;;;;25.31;50.47;98318.45;225411;1279;22706;-78
2023/07/31 14:21:38;;;;;;;2.30;1.50;;;;;;;25.40;50.73;98321.59;225725;1279;22558;-78
2023/07/31 14:26:40;;;;;;;2.90;1.30;;;;;;;25.40;50.72;98319.05;225921;1280;22608;-79
2023/07/31 14:31:43;;;;;;;1.60;1.20;;;;;;;25.44;50.82;98318.89;225833;1279;22552;-79
2023/07/31 14:36:46;;;;;;;1.60;1.30;;;;;;;25.56;50.65;98315.75;226126;1279;22560;-78
2023/07/31 14:41:49;;;;;;;1.20;1.10;;;;;;;25.70;50.81;98315.17;225898;1279;22552;-77
2023/07/31 14:46:51;;;;;;;1.60;1.10;;;;;;;25.80;50.96;98316.90;225988;1278;22536;-78
2023/07/31 14:51:54;;;;;;;1.70;1.10;;;;;;;25.79;51.27;98308.58;226169;1279;25268;-78
2023/07/31 14:56:56;;;;;;;2.10;0.90;;;;;;;25.77;50.84;98308.29;225961;1279;22543;-81
2023/07/31 15:01:58;;;;;;;1.60;0.90;;;;;;;25.76;51.09;98294.23;226108;1278;24920;-78
2023/07/31 15:07:00;;;;;;;2.80;1.10;;;;;;;25.84;51.50;98288.34;226035;1279;22581;-78
2023/07/31 15:12:03;;;;;;;1.30;1.10;;;;;;;25.98;51.50;98278.22;226024;1280;22547;-77
2023/07/31 15:17:05;;;;;;;1.30;1.20;;;;;;;26.03;51.01;98274.86;225828;1280;25306;-78
2023/07/31 15:22:08;;;;;;;2.00;1.10;;;;;;;25.88;50.78;98275.69;226148;1276;22562;-77
2023/07/31 15:27:10;;;;;;;1.80;1.20;;;;;;;25.67;50.80;98275.59;225847;1279;22539;-78
2023/07/31 15:32:13;;;;;;;3.30;1.80;;;;;;;25.38;50.99;98277.02;226152;1276;22551;-79
2023/07/31 15:37:17;;;;;;;1.40;1.20;;;;;;;25.32;51.40;98274.19;226102;1274;22552;-78
2023/07/31 15:42:19;;;;;;;3.10;1.60;;;;;;;25.38;51.12;98270.39;226020;1279;22560;-78
2023/07/31 15:47:21;;;;;;;2.20;1.70;;;;;;;25.43;51.18;98271.23;225967;1277;25380;-78
2023/07/31 15:52:23;;;;;;;2.90;2.30;;;;;;;25.50;51.18;98266.79;225859;1279;22570;-78
2023/07/31 15:57:26;;;;;;;3.60;2.20;;;;;;;25.54;51.25;98261.13;225922;1277;22543;-78
2023/07/31 16:02:32;;;;;;;2.90;2.10;;;;;;;25.43;50.98;98257.77;226163;1279;22536;-78
2023/07/31 16:07:35;;;;;;;3.30;1.90;;;;;;;25.32;51.22;98250.38;225929;1279;22543;-77
2023/07/31 16:12:53;;;;;;;2.90;1.50;;;;;;;25.33;51.92;98247.08;225976;1280;22544;-78
2023/07/31 16:17:55;;;;;;;1.90;1.40;;;;;;;25.32;51.69;98247.09;226046;1277;25317;-78
2023/07/31 16:23:11;;;;;;;2.60;1.50;;;;;;;25.17;51.21;98240.10;225956;1277;22551;-78
2023/07/31 16:28:15;;;;;;;1.90;1.80;;;;;;;25.00;51.73;98230.80;226071;1277;22535;-77
2023/07/31 16:33:38;;;;;;;1.90;1.60;;;;;;;24.87;52.02;98221.30;226039;1279;22719;-78
2023/07/31 16:38:43;;;;;;;1.60;1.40;;;;;;;24.68;52.36;98219.44;226040;1279;22564;-77
2023/07/31 16:43:48;;;;;;;2.80;1.70;;;;;;;24.45;52.40;98219.17;226017;1279;24253;-78
2023/07/31 16:48:52;;;;;;;4.70;1.90;;;;;;;24.26;53.04;98213.00;225864;1270;22532;-78
2023/07/31 16:54:00;;;;;;;3.70;1.50;;;;;;;24.21;53.39;98212.77;226009;1279;22664;-77
2023/07/31 16:59:03;;;;;;;2.30;1.70;;;;;;;24.15;53.55;98215.19;226019;1272;22539;-77
2023/07/31 17:04:05;;;;;;;2.90;1.50;;;;;;;24.06;53.83;98215.56;225821;1276;22536;-77
2023/07/31 17:09:09;;;;;;;3.80;2.00;;;;;;;23.99;54.38;98213.66;225962;1276;22555;-77
2023/07/31 17:14:11;;;;;;;3.80;1.50;;;;;;;23.88;54.65;98214.10;226049;1273;22549;-77
2023/07/31 17:19:17;;;;;;;2.20;1.70;;;;;;;23.74;54.89;98219.08;226023;1279;25270;-77
2023/07/31 17:24:20;;;;;;;3.80;1.60;;;;;;;23.59;55.37;98213.67;225922;1279;22553;-78
2023/07/31 17:29:29;;;;;;;6.40;1.70;;;;;;;23.45;55.35;98221.20;226009;1276;22552;-78
2023/07/31 17:34:49;;;;;;;2.30;1.50;;;;;;;23.27;55.72;98216.89;225955;1274;22547;-76
2023/07/31 17:39:51;;;;;;;5.00;1.80;;;;;;;23.12;55.97;98220.27;225917;1274;22620;-77
2023/07/31 17:45:00;;;;;;;4.00;1.90;;;;;;;22.97;56.09;98222.54;225850;1279;22567;-77
2023/07/31 17:50:02;;;;;;;3.60;1.60;;;;;;;22.86;56.15;98218.05;225922;1279;22641;-78
2023/07/31 17:55:07;;;;;;;2.10;1.70;;;;;;;22.75;56.24;98215.35;226095;1274;22540;-77
2023/07/31 18:00:12;;;;;;;3.10;1.90;;;;;;;22.63;56.66;98217.70;226005;1279;22715;-78
2023/07/31 18:05:15;;;;;;;2.80;1.70;;;;;;;22.43;56.84;98222.52;225922;1277;22573;-77
2023/07/31 18:10:17;;;;;;;3.40;1.70;;;;;;;22.24;57.18;98228.86;225970;1279;22659;-76
2023/07/31 18:15:19;;;;;;;2.50;1.60;;;;;;;22.05;57.75;98236.58;225943;1277;22560;-76
2023/07/31 18:20:23;;;;;;;3.10;1.50;;;;;;;21.88;57.85;98237.98;225970;1279;22547;-77
2023/07/31 18:25:25;;;;;;;2.40;1.60;;;;;;;21.67;58.16;98240.45;225992;1276;22549;-77
2023/07/31 18:30:28;;;;;;;3.50;1.50;;;;;;;21.45;58.31;98236.09;225771;1279;24271;-77
2023/07/31 18:35:30;;;;;;;3.00;1.80;;;;;;;21.23;58.64;98220.84;226051;1279;22544;-77
2023/07/31 18:40:48;;;;;;;4.20;1.60;;;;;;;21.01;58.99;98216.75;225870;1279;22686;-76
2023/07/31 18:46:08;;;;;;;3.80;1.70;;;;;;;20.83;59.48;98214.49;225868;1278;22652;-77
2023/07/31 18:51:14;;;;;;;5.50;2.00;;;;;;;20.65;59.76;98219.91;226023;1277;22547;-76
2023/07/31 18:56:18;;;;;;;3.70;1.70;;;;;;;20.49;60.12;98228.09;225776;1279;24179;-77
2023/07/31 19:01:21;;;;;;;6.80;1.80;;;;;;;20.31;60.64;98235.31;225894;1276;22546;-82
2023/07/31 19:06:23;;;;;;;3.20;1.90;;;;;;;20.14;61.00;98239.98;225856;1279;22703;-79
2023/07/31 19:11:25;;;;;;;5.20;2.10;;;;;;;19.97;61.35;98242.48;225970;1277;22549;-79
2023/07/31 19:16:35;;;;;;;3.90;1.90;;;;;;;19.81;61.70;98239.35;225929;1275;22547;-79
2023/07/31 19:21:38;;;;;;;2.80;2.00;;;;;;;19.65;62.02;98234.66;226038;1273;22552;-77
2023/07/31 19:26:52;;;;;;;4.70;1.90;;;;;;;19.50;62.37;98234.18;226063;1272;24934;-76
2023/07/31 19:31:55;;;;;;;6.60;2.40;;;;;;;19.35;62.68;98233.32;225991;1275;22561;-77
2023/07/31 19:36:58;;;;;;;4.00;1.90;;;;;;;19.22;62.96;98234.57;225909;1278;24264;-76
2023/07/31 19:42:00;;;;;;;4.90;2.20;;;;;;;19.11;63.53;98230.68;225971;1279;22552;-77
2023/07/31 19:47:06;;;;;;;5.20;3.20;;;;;;;19.01;63.92;98222.36;225963;1277;24263;-77
2023/07/31 19:52:08;;;;;;;4.50;2.80;;;;;;;18.93;64.00;98214.64;225871;1275;22539;-77
2023/07/31 19:57:10;;;;;;;4.30;2.40;;;;;;;18.87;64.31;98206.86;225920;1278;22547;-75
2023/07/31 20:02:15;;;;;;;5.30;3.60;;;;;;;18.80;64.90;98212.61;225998;1272;22544;-77
2023/07/31 20:07:18;;;;;;;6.50;3.40;;;;;;;18.69;65.20;98211.44;225907;1279;24225;-77
2023/07/31 20:12:20;;;;;;;9.60;3.60;;;;;;;18.58;65.72;98206.02;225951;1277;22571;-78
2023/07/31 20:17:24;;;;;;;9.00;3.30;;;;;;;18.49;66.09;98210.20;225974;1277;22547;-76
2023/07/31 20:22:26;;;;;;;7.90;3.70;;;;;;;18.41;66.50;98203.21;225996;1276;22485;-78
2023/07/31 20:27:28;;;;;;;9.20;3.30;;;;;;;18.32;66.99;98200.56;225998;1274;22604;-78
2023/07/31 20:32:31;;;;;;;7.40;3.30;;;;;;;18.24;67.38;98199.41;226024;1275;25269;-76
2023/07/31 20:37:34;;;;;;;6.70;3.40;;;;;;;18.15;67.51;98188.77;225917;1278;22593;-79
2023/07/31 20:42:37;;;;;;;6.20;3.40;;;;;;;18.06;67.97;98179.17;225946;1279;22544;-76
2023/07/31 20:47:40;;;;;;;6.10;3.20;;;;;;;17.95;68.33;98164.60;225891;1276;22578;-76
2023/07/31 20:52:42;;;;;;;8.60;3.30;;;;;;;17.84;68.49;98162.65;225957;1277;22540;-76
2023/07/31 20:57:44;;;;;;;7.60;3.20;;;;;;;17.75;68.79;98148.45;225971;1276;22562;-78
2023/07/31 21:02:49;;;;;;;5.10;2.90;;;;;;;17.70;68.83;98150.52;225852;1279;22603;-75
2023/07/31 21:08:05;;;;;;;5.80;3.00;;;;;;;17.66;69.06;98143.69;225897;1279;22537;-75
2023/07/31 21:13:49;;;;;;;;;;;;;;;;;;;;;
2023/07/31 21:19:03;;;;;;;7.50;3.10;;;;;;;17.58;69.56;98142.01;225905;1279;22536;-76
2023/07/31 21:24:26;;;;;;;4.60;3.20;;;;;;;17.51;69.91;98141.13;225969;1279;22592;-73
2023/07/31 21:29:31;;;;;;;5.80;3.00;;;;;;;17.47;70.11;98130.45;225948;1279;24014;-76
2023/07/31 21:34:53;;;;;;;7.60;3.30;;;;;;;17.45;70.09;98128.65;225917;1279;25294;-76
2023/07/31 21:40:00;;;;;;;6.30;2.90;;;;;;;17.44;70.18;98121.27;225844;1278;22542;-77
2023/07/31 21:45:12;;;;;;;5.10;2.80;;;;;;;17.46;70.25;98112.64;225857;1279;22559;-77
2023/07/31 21:50:38;;;;;;;4.90;3.10;;;;;;;17.49;70.29;98104.36;225958;1279;24899;-76
2023/07/31 21:55:54;;;;;;;7.00;3.30;;;;;;;17.52;70.18;98100.95;225821;1278;22986;-76
2023/07/31 22:01:03;;;;;;;5.00;3.20;;;;;;;17.54;70.31;98094.67;226002;1278;22533;-76
2023/07/31 22:06:06;;;;;;;5.10;3.20;;;;;;;17.56;70.42;98095.02;225904;1278;22563;-77
2023/07/31 22:11:09;;;;;;;5.40;2.90;;;;;;;17.58;70.42;98095.80;226065;1275;22534;-76
2023/07/31 22:16:26;;;;;;;4.60;2.90;;;;;;;17.61;70.47;98090.75;225889;1275;22536;-76
2023/07/31 22:21:29;;;;;;;5.50;3.80;;;;;;;17.65;70.58;98087.20;225968;1279;23654;-77
2023/07/31 22:26:34;;;;;;;4.40;3.10;;;;;;;17.71;70.71;98086.02;226068;1279;22550;-76
2023/07/31 22:31:59;;;;;;;8.00;3.50;;;;;;;17.76;70.82;98082.30;225966;1275;22622;-76
2023/07/31 22:37:23;;;;;;;5.20;3.20;;;;;;;17.82;70.85;98078.77;226023;1272;22581;-76
2023/07/31 22:42:46;;;;;;;6.50;3.30;;;;;;;17.87;71.08;98066.48;225966;1273;23024;-77
2023/07/31 22:47:48;;;;;;;4.20;3.40;;;;;;;17.90;71.15;98069.35;221957;1273;5347172;-77
2023/07/31 22:53:01;;;;;;;;;;;;;;;17.91;71.07;98065.20;225965;1279;25348;-76
2023/07/31 22:58:41;;;;;;;5.40;3.40;;;;;;;17.94;71.21;98062.17;226063;1279;22542;-76
2023/07/31 23:03:44;;;;;;;5.90;3.20;;;;;;;17.95;71.35;98058.06;226025;1277;22559;-76
2023/07/31 23:09:11;;;;;;;6.20;3.50;;;;;;;17.96;71.32;98058.21;225878;1279;22706;-76
2023/07/31 23:14:24;;;;;;;6.40;2.90;;;;;;;17.96;71.40;98047.96;225944;1279;22540;-77
2023/07/31 23:19:38;;;;;;;7.30;3.80;;;;;;;17.99;71.38;98045.09;226065;1279;23290;-76
2023/07/31 23:24:43;;;;;;;5.40;3.20;;;;;;;18.01;71.40;98041.53;225883;1278;23424;-77
2023/07/31 23:29:46;;;;;;;5.40;3.80;;;;;;;18.02;71.48;98035.39;225964;1277;22544;-77
2023/07/31 23:34:52;;;;;;;4.80;3.50;;;;;;;18.02;71.41;98033.58;226002;1278;22542;-76
2023/07/31 23:40:18;;;;;;;5.30;3.30;;;;;;;18.01;71.53;98019.98;226103;1279;22537;-77
2023/07/31 23:45:34;;;;;;;4.50;3.40;;;;;;;17.99;71.45;98012.48;226037;1279;22528;-77
2023/07/31 23:50:48;;;;;;;5.20;3.50;;;;;;;17.96;71.62;98007.96;225959;1268;22685;-76
2023/07/31 23:55:50;;;;;;;6.20;3.10;;;;;;;17.92;71.48;98008.55;226075;1275;23428;-76
